フィラデルフィア の空港の天気 - METARとTAF

フィラデルフィア国際空港 ( KPHL / PHL ) - アメリカ ペンシルバニア州フィラデルフィア
飛行場実況気象(Metar)
観測時間08/18 09:54 EDT (08/18 13:54 UTC)
風向・風速北 2m/s
視程10km以上
天気現象
少しの雲 雲底高度 3660m
気温25℃
湿度52%
気圧1014.3hPa
METARKPHL 181354Z 01003KT 10SM FEW120 25/14 A2995 RMK AO2 SLP143 T02500144
過去の天気等 Google飛行場航空写真 Wunderground天気予報

過去48時間のMETAR

飛行場予報(TAF)
発表時間: 8/18 07:20 EDT (8/18 11:20 UTC)
予報対象時間: 18日8時 EDT ~ 19日14時 EDT
風向・風速北西 3m/s
視程10km以上
少しの雲 雲底高度 3050m
全天の4割程度の雲 雲底高度 7620m
18日12時 EDT から
風向・風速西 4m/s
視程10km以上
少しの雲 雲底高度 1520m
18日20時 EDT から
風向・風速不定 2m/s
視程10km以上
少しの雲 雲底高度 7620m
19日11時 EDT から
風向・風速南西 3m/s
視程10km以上
少しの雲 雲底高度 7620m
KPHL 181120Z 1812/1918 32005KT P6SM FEW100 SCT250
FM181600 28008KT P6SM FEW050
FM190000 VRB04KT P6SM FEW250
FM191500 23005KT P6SM FEW250